Terminal Aerodrome Forecast
Issued by NWS

Home | Current Version | Previous Version | Text Only | Print | Product List | Glossary On
Versions: 1 2 3 4 5 6 7 8 9 10 11 12 13 14 15 16 17 18 19 20 21
000
FTUS46 KLOX 280541
TAFVNY
TAF
KVNY 280541Z 2806/2906 12006KT P6SM SCT250
     FM281100 VRB03KT 6SM HZ OVC008
     FM281700 12006KT 6SM HZ SCT012 SCT150
     FM282000 14010KT P6SM SKC
     FM290300 14007KT 6SM HZ SKC=

USA.gov is the U.S. government's official web portal to all federal, state and local government web resources and services.